createdAt,value
2022-10-23T00:03:00.378Z,56.97
2022-10-23T00:08:05.812Z,54.80
2022-10-23T00:13:09.891Z,51.20
2022-10-23T00:18:12.892Z,56.40
2022-10-23T00:23:17.919Z,53.93
2022-10-23T00:28:21.001Z,55.43
2022-10-23T00:33:24.243Z,51.97
2022-10-23T00:38:27.684Z,54.23
2022-10-23T00:43:31.941Z,55.20
2022-10-23T00:48:35.184Z,54.03
2022-10-23T00:53:38.881Z,60.20
2022-10-23T00:58:41.901Z,55.43
2022-10-23T01:03:45.001Z,58.57
2022-10-23T01:09:08.922Z,57.80
2022-10-23T01:14:21.102Z,60.83
2022-10-23T01:19:43.330Z,57.87
2022-10-23T01:25:24.242Z,59.67
2022-10-23T01:30:27.870Z,60.30
2022-10-23T01:35:46.320Z,57.93
2022-10-23T01:40:56.290Z,57.40
2022-10-23T01:46:06.659Z,55.43
2022-10-23T01:51:14.528Z,60.60
2022-10-23T01:56:23.268Z,71.20
2022-10-23T02:01:30.282Z,59.53
2022-10-23T02:06:33.871Z,65.37
2022-10-23T02:11:49.851Z,66.13
2022-10-23T02:16:58.380Z,54.17
2022-10-23T02:42:44.361Z,60.83
2022-10-23T02:48:02.151Z,61.90
2022-10-23T02:53:20.230Z,56.70
2022-10-23T02:58:44.025Z,60.50
2022-10-23T03:03:55.194Z,59.20
2022-10-23T03:09:06.586Z,72.90
2022-10-23T03:14:10.359Z,62.50
2022-10-23T03:19:13.585Z,60.30
2022-10-23T03:31:10.940Z,60.00
2022-10-23T03:36:14.311Z,55.27
2022-10-23T03:41:17.591Z,52.40
2022-10-23T03:46:20.599Z,54.37
2022-10-23T03:51:23.818Z,53.80
2022-10-23T04:03:20.580Z,43.70
2022-10-23T04:08:23.933Z,45.93
2022-10-23T04:13:26.980Z,45.10
2022-10-23T04:18:30.238Z,47.20
2022-10-23T04:23:33.511Z,47.20
2022-10-23T04:28:36.819Z,45.27
2022-10-23T04:33:39.830Z,40.00
2022-10-23T04:38:42.846Z,39.77
2022-10-23T04:43:46.161Z,36.30
2022-10-23T04:48:49.315Z,38.63
2022-10-23T04:53:52.320Z,39.70
2022-10-23T04:58:55.520Z,44.43
2022-10-23T05:03:58.597Z,39.20
2022-10-23T05:09:01.627Z,38.47
2022-10-23T05:14:05.168Z,38.17
2022-10-23T05:19:14.060Z,39.97
2022-10-23T05:24:18.652Z,37.13
2022-10-23T05:29:22.571Z,38.20
2022-10-23T05:34:26.994Z,35.20
2022-10-23T05:39:30.629Z,39.90
2022-10-23T05:44:33.642Z,33.50
2022-10-23T05:49:37.187Z,37.37
2022-10-23T05:54:40.681Z,35.37
2022-10-23T05:59:44.401Z,36.30
2022-10-23T06:04:47.625Z,34.07
2022-10-23T06:09:50.582Z,38.70
2022-10-23T06:14:53.640Z,35.30
2022-10-23T06:20:01.210Z,33.23
2022-10-23T06:25:05.321Z,35.40
2022-10-23T06:30:09.912Z,34.27
2022-10-23T06:35:13.201Z,36.03
2022-10-23T06:40:16.563Z,36.27
2022-10-23T06:45:20.221Z,34.07
2022-10-23T06:50:23.751Z,40.80
2022-10-23T06:55:27.025Z,42.67
2022-10-23T07:00:30.384Z,35.47
2022-10-23T07:05:33.711Z,40.93
2022-10-23T07:10:46.030Z,44.07
2022-10-23T07:15:49.262Z,37.13
2022-10-23T07:20:58.931Z,45.07
2022-10-23T07:26:11.873Z,40.07
2022-10-23T07:31:17.211Z,33.63
2022-10-23T07:36:20.679Z,39.33
2022-10-23T07:41:23.751Z,34.27
2022-10-23T07:46:26.990Z,41.47
2022-10-23T07:51:29.932Z,40.47
2022-10-23T07:56:33.336Z,34.53
2022-10-23T08:01:39.089Z,37.67
2022-10-23T08:06:42.380Z,40.60
2022-10-23T08:11:45.462Z,36.77
2022-10-23T08:16:48.705Z,41.77
2022-10-23T08:21:55.072Z,38.23
2022-10-23T08:26:59.109Z,45.07
2022-10-23T08:32:02.506Z,40.17
2022-10-23T08:37:06.436Z,37.63
2022-10-23T08:42:20.941Z,42.43
2022-10-23T08:47:37.882Z,50.77
2022-10-23T08:53:03.573Z,44.77
2022-10-23T08:58:37.505Z,42.57
2022-10-23T09:03:44.983Z,42.83
2022-10-23T09:09:05.022Z,36.07
2022-10-23T09:14:45.392Z,45.37
2022-10-23T09:19:51.480Z,41.97
2022-10-23T09:24:54.613Z,37.80
2022-10-23T09:29:59.731Z,41.20
2022-10-23T09:35:03.829Z,33.63
2022-10-23T09:40:30.511Z,35.07
2022-10-23T09:45:35.541Z,38.07
2022-10-23T09:50:42.844Z,39.83
2022-10-23T09:55:56.060Z,37.30
2022-10-23T10:00:59.578Z,40.53
2022-10-23T10:06:06.665Z,43.63
2022-10-23T10:11:16.690Z,40.77
2022-10-23T10:21:52.851Z,36.17
2022-10-23T10:27:30.902Z,37.20
2022-10-23T10:33:09.609Z,40.20
2022-10-23T10:38:37.111Z,37.57
2022-10-23T10:44:18.321Z,29.50
2022-10-23T10:49:36.331Z,28.67
2022-10-23T10:55:12.074Z,25.70
2022-10-23T11:00:20.709Z,25.83
2022-10-23T11:05:37.961Z,23.23
2022-10-23T11:10:46.181Z,19.67
2022-10-23T11:15:50.033Z,23.70
2022-10-23T11:21:08.813Z,19.07
2022-10-23T11:26:30.031Z,21.00
2022-10-23T11:31:55.393Z,20.47
2022-10-23T11:37:05.111Z,22.60
2022-10-23T11:42:08.140Z,20.03
2022-10-23T11:47:39.676Z,19.03
2022-10-23T11:53:12.888Z,20.67
2022-10-23T11:58:24.701Z,19.63
2022-10-23T12:03:56.750Z,18.90
2022-10-23T12:09:09.720Z,21.27
2022-10-23T12:14:42.774Z,17.53
2022-10-23T12:19:55.465Z,19.00
2022-10-23T12:24:58.709Z,20.23
2022-10-23T12:30:24.913Z,18.47
2022-10-23T12:35:38.449Z,21.13
2022-10-23T12:40:45.936Z,19.50
2022-10-23T12:45:49.962Z,22.40
2022-10-23T12:50:56.622Z,21.80
2022-10-23T12:56:02.793Z,17.10
2022-10-23T13:01:08.214Z,11.77
2022-10-23T13:06:12.962Z,11.35
2022-10-23T13:11:19.636Z,11.53
2022-10-23T13:16:27.542Z,11.13
2022-10-23T13:21:31.464Z,13.30
2022-10-23T13:26:45.791Z,12.37
2022-10-23T13:31:54.434Z,13.77
2022-10-23T13:37:02.101Z,13.55
2022-10-23T13:42:15.568Z,14.60
2022-10-23T13:47:20.732Z,12.60
2022-10-23T13:52:24.432Z,15.07
2022-10-23T13:57:28.099Z,14.10
2022-10-23T14:02:31.610Z,15.33
2022-10-23T14:07:37.921Z,15.17
2022-10-23T14:12:43.045Z,18.60
2022-10-23T14:17:49.007Z,17.13
2022-10-23T14:22:55.097Z,20.90
2022-10-23T14:28:01.146Z,14.63
2022-10-23T14:33:09.382Z,16.07
2022-10-23T14:38:15.147Z,20.60
2022-10-23T14:43:20.648Z,34.37
2022-10-23T14:48:26.774Z,32.03
2022-10-23T14:53:34.256Z,29.57
2022-10-23T14:58:45.966Z,32.47
2022-10-23T15:03:55.366Z,29.33
2022-10-23T15:08:59.401Z,28.03
2022-10-23T15:14:05.317Z,17.10
2022-10-23T15:19:17.163Z,19.83
2022-10-23T15:24:22.767Z,18.70
2022-10-23T15:29:26.719Z,18.03
2022-10-23T15:34:32.273Z,19.13
2022-10-23T15:39:37.720Z,16.43
2022-10-23T15:44:42.142Z,14.90
2022-10-23T15:49:47.479Z,14.17
2022-10-23T15:54:50.879Z,17.43
2022-10-23T15:59:56.739Z,19.77
2022-10-23T16:05:00.145Z,39.63
2022-10-23T16:10:04.478Z,43.50
2022-10-23T16:15:08.731Z,33.33
2022-10-23T16:20:12.271Z,32.33
2022-10-23T16:25:16.881Z,32.63
2022-10-23T16:30:22.826Z,38.53
2022-10-23T16:35:36.093Z,43.60
2022-10-23T16:40:40.688Z,65.77
2022-10-23T16:45:44.909Z,75.00
2022-10-23T16:50:48.385Z,38.90
2022-10-23T16:55:51.962Z,40.30
2022-10-23T17:01:08.621Z,45.97
2022-10-23T17:06:14.581Z,41.37
2022-10-23T17:11:28.690Z,32.73
2022-10-23T17:16:53.311Z,24.63
2022-10-23T17:21:58.790Z,29.83
2022-10-23T17:27:06.189Z,27.03
2022-10-23T17:32:12.174Z,35.47
2022-10-23T17:37:25.485Z,54.70
2022-10-23T17:42:30.505Z,44.93
2022-10-23T17:47:35.911Z,31.70
2022-10-23T17:52:41.906Z,34.37
2022-10-23T17:57:46.761Z,29.17
2022-10-23T19:13:14.251Z,31.23
2022-10-23T19:18:21.614Z,29.47
2022-10-23T19:23:30.338Z,33.27
2022-10-23T19:28:39.639Z,30.33
2022-10-23T19:33:47.690Z,32.53
2022-10-23T19:38:56.642Z,50.03
2022-10-23T19:44:11.933Z,33.80
2022-10-23T19:49:42.308Z,41.60
2022-10-23T19:55:15.001Z,60.53
2022-10-23T20:00:45.223Z,63.07
2022-10-23T20:12:18.331Z,37.53
2022-10-23T20:17:43.976Z,37.47
2022-10-23T20:22:55.318Z,39.17
2022-10-23T20:28:26.875Z,38.17
2022-10-23T20:33:41.241Z,40.60
2022-10-23T20:38:53.081Z,37.50
2022-10-23T20:50:11.814Z,39.13
2022-10-23T21:13:50.302Z,69.97
2022-10-23T21:25:06.893Z,49.43
2022-10-23T21:30:44.039Z,49.40
2022-10-23T21:35:58.252Z,47.20
2022-10-23T21:41:35.688Z,65.93
2022-10-23T21:46:48.481Z,65.43
2022-10-23T21:51:55.459Z,39.87
2022-10-23T21:58:04.333Z,45.07
2022-10-23T22:03:07.742Z,41.87
2022-10-23T22:08:11.403Z,43.43
2022-10-23T22:13:14.991Z,46.87
2022-10-23T22:18:18.401Z,44.83
2022-10-23T22:23:22.099Z,43.10
2022-10-23T22:28:26.051Z,51.50
2022-10-23T22:33:32.205Z,45.97
2022-10-23T22:38:35.859Z,41.17
2022-10-23T22:43:39.432Z,51.03
2022-10-23T22:48:43.817Z,50.97
2022-10-23T22:53:47.841Z,43.87
2022-10-23T22:58:52.042Z,51.33
2022-10-23T23:03:58.193Z,54.30
2022-10-23T23:09:04.771Z,44.00
2022-10-23T23:14:08.211Z,45.83
2022-10-23T23:19:12.729Z,50.10
2022-10-23T23:24:16.119Z,41.37
2022-10-23T23:29:19.839Z,47.87
2022-10-23T23:34:23.551Z,47.57
2022-10-23T23:39:29.010Z,55.83
2022-10-23T23:44:32.542Z,48.73
2022-10-23T23:49:35.926Z,47.57
2022-10-23T23:54:39.379Z,43.00
2022-10-23T23:59:43.261Z,42.37
